Cloudsky Airways

Cloudsky Airways! We Make a Difference



 METAR AND TAF INFORMATION
METAR FOR SEGS
ADDS - METARS form results

(1640 UTC 20 October 2019)
Data provider http://aviationweather.gov/metar/data/
 
METAR text: SEGS 201600Z 15018KT 9999 BKN020 25/18 Q1016 A3000
Conditions at: SEGS (SAN CRISTOBAL , EC) observed 1600 UTC 20 October 2019
Temperature: 25.0°C (77°F)
Dewpoint: 18.0°C (64°F) [RH = 65%]
Pressure (altimeter): 30.00 inches Hg (1016.0 mb)
Winds: from the SSE (150 degrees) at 21 MPH (18 knots; 9.3 m/s)
Visibility: 6 or more miles (10+ km)
Ceiling: 2000 feet AGL
Clouds: broken clouds at 2000 feet AGL
Weather: no significant weather observed at this time

 AIRPORT MAP

 RUNWAY INFORMATION
Runway 14 Runway length 7876 ft Runway width 115 ft
Runway elevation 145 ft Runway displaced threshold 0 ft Runway heading 144
Runway 32 Runway length 7876 ft Runway width 115 ft
Runway elevation 207 ft Runway displaced threshold 0 ft Runway heading 324

 AIRPORT FREQUENCIES
Type TWR Name TWR Frequency 122.2 MHZ

 AIRPORT NEAR NAVIGATION AIDS
Type NDB Name Galapagos Frequency 272 KHZ
Type VOR-DME Name Galapagos Frequency 112300 KHZ